Time;durP1;ratioP1;P1;durP2;ratioP2;P2;SDS_P1;SDS_P2;PMS_P1;PMS_P2;Temp;Humidity;BMP_temperature;BMP_pressure;BME280_temperature;BME280_humidity;BME280_pressure;Samples;Min_cycle;Max_cycle;Signal;HPM_P1;HPM_P2
2022/05/19 00:02:13;;;;;;;27.05;22.73;;;;;;;;;;5054132;28;20072;-62
2022/05/19 00:04:39;;;;;;;28.42;23.38;;;;;;;;;;5053947;28;20072;-62
2022/05/19 00:07:06;;;;;;;30.60;23.45;;;;;;;;;;5036916;28;20044;-62
2022/05/19 00:09:32;;;;;;;28.73;25.63;;;;;;;;;;5054537;28;20083;-62
2022/05/19 00:11:59;;;;;;;26.52;23.48;;;;;;;;;;5071220;28;20039;-62
2022/05/19 00:14:25;;;;;;;25.13;22.52;;;;;;;;;;5054390;28;20371;-62
2022/05/19 00:16:56;;;;;;;27.48;23.40;;;;;;;;;;5037233;28;20070;-62
2022/05/19 00:19:22;;;;;;;32.47;26.80;;;;;;;;;;5036703;28;20470;-62
2022/05/19 00:21:48;;;;;;;29.70;26.50;;;;;;;;;;5071972;28;20084;-62
2022/05/19 00:24:14;;;;;;;31.48;28.15;;;;;;;;;;5054140;28;20188;-62
2022/05/19 00:26:40;;;;;;;30.67;26.50;;;;;;;;;;5072291;28;20397;-62
2022/05/19 00:29:06;;;;;;;31.50;26.67;;;;;;;;;;5058606;28;20377;-62
2022/05/19 00:31:32;;;;;;;31.63;27.75;;;;;;;;;;5058107;28;20052;-62
2022/05/19 00:33:59;;;;;;;26.05;23.27;;;;;;;;;;5075543;28;20043;-62
2022/05/19 00:36:25;;;;;;;32.58;26.75;;;;;;;;;;5075805;28;20396;-62
2022/05/19 00:38:51;;;;;;;34.05;27.83;;;;;;;;;;5076092;28;20044;-62
2022/05/19 00:41:17;;;;;;;33.67;27.67;;;;;;;;;;5075102;28;20469;-62
2022/05/19 00:43:46;;;;;;;35.20;27.73;;;;;;;;;;5058202;28;20062;-62
2022/05/19 00:46:19;;;;;;;32.80;27.02;;;;;;;;;;5056647;28;20481;-62
2022/05/19 00:48:56;;;;;;;30.52;27.48;;;;;;;;;;5057951;28;20040;-62
2022/05/19 00:51:26;;;;;;;36.05;29.27;;;;;;;;;;5057900;28;20087;-62
2022/05/19 00:53:54;;;;;;;33.42;27.83;;;;;;;;;;5075168;28;20436;-62
2022/05/19 00:56:28;;;;;;;33.00;28.70;;;;;;;;;;5075843;28;20036;-62
2022/05/19 00:59:03;;;;;;;31.23;27.15;;;;;;;;;;5075647;28;20048;-62
2022/05/19 01:01:29;;;;;;;32.20;26.33;;;;;;;;;;5074881;28;20048;-62
2022/05/19 01:03:58;;;;;;;30.25;27.10;;;;;;;;;;5075305;28;20524;-62
2022/05/19 01:06:24;;;;;;;32.90;27.08;;;;;;;;;;5057421;28;20047;-62
2022/05/19 01:09:01;;;;;;;28.20;24.90;;;;;;;;;;5057206;28;20044;-62
2022/05/19 01:11:27;;;;;;;36.38;27.95;;;;;;;;;;5055437;28;20064;-62
2022/05/19 01:13:53;;;;;;;29.70;25.13;;;;;;;;;;5055380;28;20037;-62
2022/05/19 01:16:19;;;;;;;32.05;27.70;;;;;;;;;;5054661;28;20482;-62
2022/05/19 01:18:46;;;;;;;31.95;25.02;;;;;;;;;;5055379;28;20041;-62
2022/05/19 01:21:13;;;;;;;30.83;27.60;;;;;;;;;;5039120;28;20093;-62
2022/05/19 01:23:45;;;;;;;32.58;27.23;;;;;;;;;;5075021;28;20060;-62
2022/05/19 01:26:14;;;;;;;35.58;27.85;;;;;;;;;;5057161;28;20461;-62
2022/05/19 01:28:40;;;;;;;33.22;27.77;;;;;;;;;;5056971;28;20051;-62
2022/05/19 01:31:06;;;;;;;34.25;27.50;;;;;;;;;;5074487;28;20041;-62
2022/05/19 01:33:32;;;;;;;30.13;25.50;;;;;;;;;;5040256;28;20413;-62
2022/05/19 01:35:58;;;;;;;37.13;29.48;;;;;;;;;;5074085;28;20037;-62
2022/05/19 01:38:30;;;;;;;32.83;29.38;;;;;;;;;;5055893;28;20043;-62
2022/05/19 01:41:01;;;;;;;34.78;26.77;;;;;;;;;;5074379;28;20137;-62
2022/05/19 01:43:27;;;;;;;30.70;27.50;;;;;;;;;;5073774;28;20083;-62
2022/05/19 01:45:53;;;;;;;29.83;24.98;;;;;;;;;;5057388;28;20080;-62
2022/05/19 01:48:31;;;;;;;31.63;27.88;;;;;;;;;;5074295;28;20550;-62
2022/05/19 01:51:01;;;;;;;29.92;25.73;;;;;;;;;;5055762;28;20037;-62
2022/05/19 01:53:37;;;;;;;30.92;26.83;;;;;;;;;;5074907;28;20089;-62
2022/05/19 01:56:07;;;;;;;31.88;28.55;;;;;;;;;;5074985;28;20048;-62
2022/05/19 01:58:39;;;;;;;30.83;27.50;;;;;;;;;;5073795;28;20056;-62
2022/05/19 02:01:05;;;;;;;28.52;25.42;;;;;;;;;;5056746;28;20087;-62
2022/05/19 02:03:42;;;;;;;33.38;29.88;;;;;;;;;;5073542;28;20041;-62
2022/05/19 02:06:15;;;;;;;32.67;29.27;;;;;;;;;;5056154;28;20052;-62
2022/05/19 02:08:49;;;;;;;36.88;31.83;;;;;;;;;;5074398;28;20421;-62
2022/05/19 02:11:28;;;;;;;37.40;32.03;;;;;;;;;;5073433;28;20111;-62
2022/05/19 02:13:56;;;;;;;35.90;32.03;;;;;;;;;;5056616;28;20099;-62
2022/05/19 02:16:23;;;;;;;35.95;31.90;;;;;;;;;;5055791;28;20037;-62
2022/05/19 02:18:49;;;;;;;36.55;29.98;;;;;;;;;;5073357;28;20048;-62
2022/05/19 02:21:16;;;;;;;36.70;32.75;;;;;;;;;;5073964;28;20131;-62
2022/05/19 02:23:42;;;;;;;38.90;32.20;;;;;;;;;;5055998;28;20566;-62
2022/05/19 02:26:08;;;;;;;36.22;32.30;;;;;;;;;;5072597;28;20175;-62
2022/05/19 02:28:38;;;;;;;36.95;31.88;;;;;;;;;;5074034;28;20512;-62
2022/05/19 02:31:04;;;;;;;36.17;32.28;;;;;;;;;;5073363;28;20494;-62
2022/05/19 02:33:30;;;;;;;39.03;31.20;;;;;;;;;;5055779;28;20170;-62
2022/05/19 02:35:56;;;;;;;39.00;34.25;;;;;;;;;;5073558;28;20537;-62
2022/05/19 02:38:23;;;;;;;34.90;31.05;;;;;;;;;;5074084;28;20123;-62
2022/05/19 02:40:49;;;;;;;35.40;31.65;;;;;;;;;;5072963;28;20099;-62
2022/05/19 02:43:16;;;;;;;37.17;31.25;;;;;;;;;;5073473;28;20381;-62
2022/05/19 02:45:42;;;;;;;34.25;30.63;;;;;;;;;;5055277;28;20071;-62
2022/05/19 02:48:09;;;;;;;38.75;33.08;;;;;;;;;;5073116;28;20389;-62
2022/05/19 02:50:36;;;;;;;37.60;30.52;;;;;;;;;;5073457;28;20036;-62
2022/05/19 02:53:03;;;;;;;38.75;32.20;;;;;;;;;;5054942;28;20038;-62
2022/05/19 02:55:29;;;;;;;35.72;30.00;;;;;;;;;;5073432;28;20392;-62
2022/05/19 02:57:55;;;;;;;36.70;32.67;;;;;;;;;;5073167;28;20032;-62
2022/05/19 03:00:23;;;;;;;40.05;32.13;;;;;;;;;;5072234;28;20505;-62
2022/05/19 03:02:49;;;;;;;37.38;32.28;;;;;;;;;;5073422;28;20504;-62
2022/05/19 03:05:17;;;;;;;38.95;32.65;;;;;;;;;;5073071;28;20033;-62
2022/05/19 03:07:43;;;;;;;38.72;32.17;;;;;;;;;;5050693;28;20103;-62
2022/05/19 03:10:10;;;;;;;33.10;28.67;;;;;;;;;;5051964;28;20041;-62
2022/05/19 03:12:36;;;;;;;39.20;34.95;;;;;;;;;;5053472;28;20036;-62
2022/05/19 03:15:02;;;;;;;37.40;30.17;;;;;;;;;;5051186;28;20048;-62
2022/05/19 03:17:28;;;;;;;37.78;32.28;;;;;;;;;;5051598;28;20041;-62
2022/05/19 03:19:55;;;;;;;41.60;34.65;;;;;;;;;;5051887;28;20048;-62
2022/05/19 03:22:22;;;;;;;39.00;32.42;;;;;;;;;;5054993;28;20421;-62
2022/05/19 03:24:48;;;;;;;46.75;34.13;;;;;;;;;;5055160;28;20094;-62
2022/05/19 03:27:14;;;;;;;39.15;31.83;;;;;;;;;;5072686;28;20048;-62
2022/05/19 03:29:40;;;;;;;42.20;33.33;;;;;;;;;;5054013;28;20048;-62
2022/05/19 03:32:07;;;;;;;41.63;34.85;;;;;;;;;;5054479;28;20103;-62
2022/05/19 03:34:33;;;;;;;42.28;33.67;;;;;;;;;;5072736;28;20547;-62
2022/05/19 03:37:02;;;;;;;41.25;34.13;;;;;;;;;;5071339;28;20072;-62
2022/05/19 03:39:28;;;;;;;42.72;34.95;;;;;;;;;;5072717;28;20047;-62
2022/05/19 03:41:54;;;;;;;36.40;28.83;;;;;;;;;;5071690;28;20127;-62
2022/05/19 03:44:20;;;;;;;39.45;33.03;;;;;;;;;;5054631;28;20044;-62
2022/05/19 03:46:46;;;;;;;41.42;35.53;;;;;;;;;;5038074;28;20050;-62
2022/05/19 03:49:13;;;;;;;44.22;33.72;;;;;;;;;;5071133;28;20041;-62
2022/05/19 03:51:40;;;;;;;44.00;36.00;;;;;;;;;;5054808;28;20044;-62
2022/05/19 03:54:06;;;;;;;37.40;32.58;;;;;;;;;;5054210;28;20044;-62
2022/05/19 03:56:32;;;;;;;43.20;33.83;;;;;;;;;;5071853;28;20102;-62
2022/05/19 03:58:58;;;;;;;40.38;35.15;;;;;;;;;;5072077;28;20039;-62
2022/05/19 04:01:24;;;;;;;41.78;36.35;;;;;;;;;;5053797;28;20400;-62
2022/05/19 04:03:51;;;;;;;39.72;34.40;;;15.20;99.90;;;;;;5053530;28;20069;-62
2022/05/19 04:06:17;;;;;;;46.88;36.97;;;15.30;99.90;;;;;;5054159;28;20119;-62
2022/05/19 04:08:44;;;;;;;35.10;31.30;;;;;;;;;;5072277;28;20044;-62
2022/05/19 04:11:10;;;;;;;40.65;35.08;;;;;;;;;;5052988;28;20052;-62
2022/05/19 04:13:36;;;;;;;43.00;36.38;;;15.30;99.90;;;;;;5054295;28;20051;-62
2022/05/19 04:16:02;;;;;;;39.85;34.97;;;15.10;99.90;;;;;;5052761;28;20039;-62
2022/05/19 04:18:28;;;;;;;42.33;35.55;;;15.20;99.90;;;;;;5071393;28;20044;-62
2022/05/19 04:20:54;;;;;;;42.70;35.30;;;15.20;99.90;;;;;;5072271;28;20123;-62
2022/05/19 04:23:20;;;;;;;40.10;35.67;;;15.10;99.90;;;;;;5071745;28;20155;-62
2022/05/19 04:25:46;;;;;;;47.30;35.63;;;15.20;99.90;;;;;;5071369;28;20533;-62
2022/05/19 04:28:12;;;;;;;43.35;35.40;;;15.30;99.90;;;;;;5036774;28;20045;-62
2022/05/19 04:30:41;;;;;;;53.97;39.95;;;15.90;99.90;;;;;;5071731;28;20539;-62
2022/05/19 04:33:08;;;;;;;44.75;35.55;;;15.80;99.90;;;;;;5053323;28;20046;-62
2022/05/19 04:35:34;;;;;;;51.00;36.63;;;;;;;;;;5072413;28;20492;-63
2022/05/19 04:38:00;;;;;;;40.58;36.00;;;;;;;;;;5071700;28;20469;-62
2022/05/19 04:40:26;;;;;;;45.35;37.17;;;;;;;;;;5071393;28;20049;-62
2022/05/19 04:42:53;;;;;;;43.50;36.40;;;15.70;99.90;;;;;;5071354;28;20036;-62
2022/05/19 04:45:19;;;;;;;43.42;35.95;;;;;;;;;;5067397;28;20082;-62
2022/05/19 04:47:47;;;;;;;45.10;36.70;;;;;;;;;;5071976;28;20095;-62
2022/05/19 04:50:13;;;;;;;39.95;33.55;;;;;;;;;;5053156;28;20076;-62
2022/05/19 04:52:40;;;;;;;45.10;35.28;;;;;;;;;;5071345;28;20041;-62
2022/05/19 04:55:07;;;;;;;38.30;32.30;;;;;;;;;;5053374;28;20169;-62
2022/05/19 04:57:33;;;;;;;42.88;32.45;;;;;;;;;;5037261;28;20087;-62
2022/05/19 04:59:59;;;;;;;38.20;31.90;;;;;;;;;;5070784;28;20036;-62
2022/05/19 05:02:25;;;;;;;38.92;31.15;;;;;;;;;;5071481;28;20478;-62
2022/05/19 05:04:51;;;;;;;39.78;30.83;;;;;;;;;;5071599;28;20037;-62
2022/05/19 05:07:17;;;;;;;39.10;31.65;;;;;;;;;;5062670;28;20037;-62
2022/05/19 05:09:43;;;;;;;39.10;31.85;;;;;;;;;;5051977;28;20048;-62
2022/05/19 05:12:09;;;;;;;39.95;31.80;;;;;;;;;;5050879;28;20496;-62
2022/05/19 05:14:35;;;;;;;45.50;35.22;;;16.40;99.90;;;;;;5053295;28;20112;-62
2022/05/19 05:17:02;;;;;;;41.13;31.23;;;;;;;;;;5057074;28;20044;-62
2022/05/19 05:19:28;;;;;;;41.67;32.85;;;;;;;;;;5057465;28;20067;-62
2022/05/19 05:21:59;;;;;;;40.63;32.30;;;16.60;99.90;;;;;;5056605;28;20469;-62
2022/05/19 05:24:25;;;;;;;43.80;34.65;;;;;;;;;;5057386;28;20055;-62
2022/05/19 05:26:51;;;;;;;35.38;28.83;;;;;;;;;;5074708;28;20044;-62
2022/05/19 05:29:17;;;;;;;37.42;28.52;;;;;;;;;;5055981;28;20503;-62
2022/05/19 05:31:43;;;;;;;37.45;29.48;;;;;;;;;;5075169;28;20124;-62
2022/05/19 05:34:09;;;;;;;33.03;29.17;;;16.90;99.90;;;;;;5056864;28;20076;-62
2022/05/19 05:36:34;;;;;;;34.03;29.60;;;16.90;99.90;;;;;;5074208;28;20436;-62
2022/05/19 05:39:00;;;;;;;42.58;30.67;;;;;;;;;;5074895;28;20090;-62
2022/05/19 05:41:26;;;;;;;33.95;28.88;;;;;;;;;;5056178;28;20056;-62
2022/05/19 05:43:52;;;;;;;34.15;29.05;;;;;;;;;;5074664;28;20047;-62
2022/05/19 05:46:18;;;;;;;34.38;27.88;;;;;;;;;;5056951;28;20106;-62
2022/05/19 05:48:46;;;;;;;36.92;28.50;;;17.00;99.90;;;;;;5056384;28;20044;-62
2022/05/19 05:51:13;;;;;;;38.17;31.27;;;17.00;99.90;;;;;;5056298;28;20037;-62
2022/05/19 05:53:40;;;;;;;34.85;28.58;;;17.00;99.90;;;;;;5074976;28;20075;-62
2022/05/19 05:56:08;;;;;;;34.65;28.60;;;16.90;99.90;;;;;;5038858;28;20047;-62
2022/05/19 05:58:34;;;;;;;35.38;30.55;;;17.10;99.90;;;;;;5074565;28;20371;-62
2022/05/19 06:01:06;;;;;;;41.88;33.03;;;16.70;99.90;;;;;;5056695;28;20051;-62
2022/05/19 06:03:32;;;;;;;39.78;29.55;;;;;;;;;;5056122;28;20048;-62
2022/05/19 06:05:58;;;;;;;41.63;34.47;;;;;;;;;;5073991;28;20040;-62
2022/05/19 06:08:24;;;;;;;35.95;32.03;;;16.70;99.90;;;;;;5074001;28;20048;-62
2022/05/19 06:10:50;;;;;;;37.80;30.83;;;16.70;99.90;;;;;;5073344;28;20029;-62
2022/05/19 06:13:16;;;;;;;37.55;30.05;;;;;;;;;;5074195;28;20043;-62
2022/05/19 06:15:42;;;;;;;37.58;30.08;;;;;;;;;;5074537;28;20036;-62
2022/05/19 06:18:08;;;;;;;37.53;29.30;;;16.50;99.90;;;;;;5055233;28;20045;-62
2022/05/19 06:20:35;;;;;;;40.67;33.20;;;16.60;99.90;;;;;;5056714;28;20040;-62
2022/05/19 06:23:03;;;;;;;36.65;29.05;;;;;;;;;;5072704;28;20132;-62
2022/05/19 06:25:29;;;;;;;34.85;28.60;;;16.50;99.90;;;;;;5054391;28;20569;-62
2022/05/19 06:27:56;;;;;;;39.65;28.65;;;;;;;;;;5073915;28;20170;-62
2022/05/19 06:30:22;;;;;;;41.63;29.40;;;16.80;99.90;;;;;;5049435;28;20486;-62
2022/05/19 06:32:49;;;;;;;38.25;29.98;;;16.40;99.90;;;;;;5068155;28;20053;-62
2022/05/19 06:35:22;;;;;;;43.72;31.17;;;16.50;99.90;;;;;;5054440;28;20583;-62
2022/05/19 06:37:49;;;;;;;40.28;31.02;;;;;;;;;;5058828;28;20405;-62
2022/05/19 06:40:15;;;;;;;38.58;30.33;;;;;;;;;;5055410;28;20052;-62
2022/05/19 06:42:43;;;;;;;47.35;35.38;;;16.40;99.90;;;;;;5032586;28;20834;-62
2022/05/19 06:45:11;;;;;;;42.35;31.50;;;16.50;99.90;;;;;;5050022;28;20051;-62
2022/05/19 06:47:38;;;;;;;53.53;40.08;;;;;;;;;;5050611;28;20485;-62
2022/05/19 06:50:08;;;;;;;45.03;34.22;;;16.50;99.90;;;;;;5063947;28;20045;-62
2022/05/19 06:52:35;;;;;;;40.85;31.50;;;;;;;;;;5032262;28;20037;-62
2022/05/19 06:55:02;;;;;;;36.83;30.02;;;16.50;99.90;;;;;;5050940;28;20434;-62
2022/05/19 06:57:30;;;;;;;43.30;31.92;;;16.40;99.90;;;;;;5034600;28;20068;-62
2022/05/19 06:59:55;;;;;;;42.22;33.28;;;16.70;99.90;;;;;;5052339;28;20481;-62
2022/05/19 07:02:24;;;;;;;40.60;31.05;;;16.70;99.90;;;;;;5053078;28;20125;-62
2022/05/19 07:04:51;;;;;;;40.15;30.52;;;;;;;;;;5070435;28;20046;-62
2022/05/19 07:07:17;;;;;;;42.55;33.10;;;;;;;;;;5070063;28;20489;-62
2022/05/19 07:09:44;;;;;;;41.00;31.30;;;;;;;;;;5070967;28;20123;-63
2022/05/19 07:12:11;;;;;;;38.35;31.65;;;16.90;99.90;;;;;;5052220;28;20167;-62
2022/05/19 07:14:38;;;;;;;37.33;31.27;;;16.80;99.90;;;;;;5052426;28;20055;-62
2022/05/19 07:17:04;;;;;;;34.63;30.25;;;;;;;;;;5069710;28;20044;-62
2022/05/19 07:22:19;;;;;;;33.92;26.50;;;16.80;99.90;;;;;;5051064;28;20057;-62
2022/05/19 07:24:45;;;;;;;37.13;26.95;;;;;;;;;;5069682;28;20155;-62
2022/05/19 07:27:12;;;;;;;38.50;31.35;;;17.00;99.90;;;;;;5068798;28;20104;-62
2022/05/19 07:29:39;;;;;;;40.70;31.70;;;17.10;99.90;;;;;;5068507;28;20486;-62
2022/05/19 07:32:05;;;;;;;35.67;25.50;;;;;;;;;;5070313;28;20040;-62
2022/05/19 07:34:33;;;;;;;33.85;25.50;;;17.20;99.90;;;;;;5052033;28;20044;-62
2022/05/19 07:37:00;;;;;;;42.78;21.08;;;17.40;99.90;;;;;;5069315;28;20041;-62
2022/05/19 07:39:26;;;;;;;31.88;19.75;;;;;;;;;;5051863;28;20166;-62
2022/05/19 07:41:55;;;;;;;35.33;20.83;;;17.30;99.90;;;;;;5068643;28;20059;-62
2022/05/19 07:44:21;;;;;;;34.25;20.20;;;17.00;99.90;;;;;;5035167;28;20041;-62
2022/05/19 07:46:48;;;;;;;26.52;18.77;;;17.90;99.90;;;;;;5051763;28;20397;-62
2022/05/19 07:49:14;;;;;;;29.40;18.77;;;;;;;;;;5049999;28;20123;-62
2022/05/19 07:51:41;;;;;;;31.05;18.27;;;17.20;99.90;;;;;;5067278;28;20480;-62
2022/05/19 07:54:14;;;;;;;34.20;20.05;;;17.20;99.90;;;;;;5054978;28;20043;-61
2022/05/19 07:56:41;;;;;;;31.80;19.80;;;17.20;99.90;;;;;;5053895;28;20040;-62
2022/05/19 07:59:08;;;;;;;39.25;18.30;;;17.30;99.90;;;;;;5067263;28;20044;-62
2022/05/19 08:01:34;;;;;;;34.33;19.75;;;16.80;99.90;;;;;;5071347;28;20178;-62
2022/05/19 08:04:00;;;;;;;35.97;19.02;;;17.30;99.90;;;;;;5045425;28;20119;-61
2022/05/19 08:06:28;;;;;;;31.83;17.60;;;;;;;;;;5051477;28;20056;-62
2022/05/19 08:08:54;;;;;;;29.50;19.58;;;17.30;99.90;;;;;;5048543;28;20454;-62
2022/05/19 08:11:22;;;;;;;31.65;17.55;;;17.30;99.90;;;;;;5049634;28;20041;-62
2022/05/19 08:16:32;;;;;;;25.50;18.67;;;;;;;;;;5050236;28;20041;-62
2022/05/19 08:18:58;;;;;;;31.90;18.60;;;;;;;;;;5051881;28;20134;-62
2022/05/19 08:21:25;;;;;;;34.05;19.48;;;;;;;;;;5050634;28;20083;-62
2022/05/19 08:23:51;;;;;;;25.90;17.13;;;;;;;;;;5049789;28;20135;-62
2022/05/19 08:26:17;;;;;;;26.58;17.92;;;;;;;;;;5050510;28;20044;-62
2022/05/19 08:28:44;;;;;;;27.88;17.88;;;;;;;;;;5051983;28;20483;-62
2022/05/19 08:31:11;;;;;;;24.60;16.98;;;;;;;;;;5032899;28;20095;-62
2022/05/19 08:33:39;;;;;;;32.00;18.00;;;17.30;99.90;;;;;;5050702;28;20041;-62
2022/05/19 08:36:05;;;;;;;28.77;18.27;;;17.60;99.90;;;;;;5050370;28;20072;-62
2022/05/19 08:38:31;;;;;;;29.33;17.52;;;17.80;99.90;;;;;;5050044;28;20049;-62
2022/05/19 08:41:05;;;;;;;30.50;16.85;;;18.00;99.90;;;;;;5050459;28;20166;-62
2022/05/19 08:43:34;;;;;;;31.42;17.50;;;;;;;;;;5050982;28;20072;-62
2022/05/19 08:46:02;;;;;;;26.70;16.33;;;17.70;99.90;;;;;;5033485;28;20068;-62
2022/05/19 08:48:29;;;;;;;22.75;16.20;;;17.80;99.90;;;;;;5052556;28;20052;-62
2022/05/19 08:50:57;;;;;;;21.83;15.95;;;17.80;99.90;;;;;;5054415;28;20045;-62
2022/05/19 08:53:35;;;;;;;28.33;17.08;;;17.90;99.90;;;;;;5055137;28;20049;-62
2022/05/19 08:56:25;;;;;;;26.00;16.67;;;17.80;99.90;;;;;;5055863;28;20098;-62
2022/05/19 08:59:18;;;;;;;28.58;16.10;;;17.80;99.90;;;;;;5054939;28;20041;-62
2022/05/19 09:01:53;;;;;;;21.33;15.82;;;18.20;99.90;;;;;;5054479;28;20120;-62
2022/05/19 09:04:50;;;;;;;20.77;15.95;;;18.00;99.90;;;;;;5054090;28;20074;-62
2022/05/19 09:08:10;;;;;;;30.02;18.05;;;18.00;99.90;;;;;;5054737;28;20051;-61
2022/05/19 09:10:35;;;;;;;22.50;15.23;;;18.10;99.90;;;;;;5063429;28;20067;-61
2022/05/19 09:13:23;;;;;;;26.60;16.63;;;18.10;99.90;;;;;;5074273;28;20111;-61
2022/05/19 09:15:50;;;;;;;24.25;15.20;;;;;;;;;;5075215;28;20041;-61
2022/05/19 09:18:17;;;;;;;24.52;15.45;;;;;;;;;;5071688;28;20036;-61
2022/05/19 09:20:55;;;;;;;23.33;15.98;;;18.50;99.90;;;;;;5076960;28;20039;-61
2022/05/19 09:23:21;;;;;;;26.65;16.75;;;18.60;99.90;;;;;;5076856;28;20059;-61
2022/05/19 09:25:52;;;;;;;20.25;16.45;;;18.60;99.90;;;;;;5076515;28;20055;-61
2022/05/19 09:28:19;;;;;;;23.23;16.05;;;18.70;99.90;;;;;;5056096;28;20051;-61
2022/05/19 09:30:54;;;;;;;23.27;17.13;;;18.80;99.90;;;;;;5074318;28;20122;-61
2022/05/19 09:33:34;;;;;;;20.38;14.93;;;18.70;99.90;;;;;;5074406;28;20068;-61
2022/05/19 09:36:05;;;;;;;24.02;15.93;;;19.00;99.90;;;;;;5074545;28;20086;-61
2022/05/19 09:38:37;;;;;;;23.30;16.17;;;19.20;99.90;;;;;;5035155;28;20106;-62
2022/05/19 09:41:06;;;;;;;23.65;15.18;;;19.40;99.90;;;;;;5051176;28;20128;-61
2022/05/19 09:43:37;;;;;;;23.50;16.15;;;19.00;99.90;;;;;;5052099;28;20552;-62
2022/05/19 09:46:11;;;;;;;22.15;14.65;;;19.20;99.90;;;;;;5054104;28;20502;-61
2022/05/19 09:48:41;;;;;;;21.75;15.98;;;;;;;;;;5070889;28;20090;-62
2022/05/19 09:51:16;;;;;;;18.75;13.35;;;19.10;99.90;;;;;;5070987;28;20033;-61
2022/05/19 09:53:46;;;;;;;;;;;19.40;99.90;;;;;;5054504;28;20489;-61
2022/05/19 09:56:14;;;;;;;17.45;11.82;;;;;;;;;;5053227;28;19916;-61
2022/05/19 09:58:44;;;;;;;20.35;13.65;;;19.90;99.90;;;;;;5054109;28;20054;-62
2022/05/19 10:01:33;;;;;;;19.83;12.75;;;;;;;;;;5052633;28;20249;-61
2022/05/19 10:04:01;;;;;;;16.05;12.63;;;19.50;99.90;;;;;;5060652;28;20170;-61
2022/05/19 10:06:57;;;;;;;18.25;13.38;;;19.80;99.90;;;;;;5043934;28;20364;-61
2022/05/19 10:09:30;;;;;;;22.00;13.55;;;19.90;99.90;;;;;;5059125;28;20053;-62
2022/05/19 10:12:08;;;;;;;16.50;13.95;;;19.80;99.90;;;;;;5055486;28;20084;-62
2022/05/19 10:14:35;;;;;;;18.42;12.82;;;19.90;99.90;;;;;;5050845;28;20116;-62
2022/05/19 10:17:29;;;;;;;25.15;13.77;;;19.90;99.90;;;;;;5052259;28;20044;-62
2022/05/19 10:20:09;;;;;;;17.48;13.35;;;;;;;;;;5037820;28;20567;-62
2022/05/19 10:22:54;;;;;;;17.20;12.70;;;;;;;;;;5040315;28;20075;-62
2022/05/19 10:25:20;;;;;;;;;;;20.50;99.90;;;;;;5060774;28;20075;-62
2022/05/19 10:31:14;;;;;;;19.80;11.70;;;20.70;99.90;;;;;;5054490;28;20044;-62
2022/05/19 10:33:57;;;;;;;17.35;12.57;;;20.90;99.90;;;;;;5064763;28;20079;-63
2022/05/19 10:36:36;;;;;;;16.83;12.05;;;21.30;99.90;;;;;;5035853;28;20045;-62
2022/05/19 10:39:06;;;;;;;19.58;14.00;;;;;;;;;;5044248;28;20585;-63
2022/05/19 10:41:50;;;;;;;16.30;12.63;;;;;;;;;;5062576;28;20044;-63
2022/05/19 10:44:22;;;;;;;22.63;15.07;;;;;;;;;;5048368;28;20048;-63
2022/05/19 10:47:07;;;;;;;18.08;14.60;;;23.90;99.90;;;;;;5057567;28;20059;-63
2022/05/19 10:49:47;;;;;;;19.42;14.88;;;21.50;99.90;;;;;;5066039;28;20055;-63
2022/05/19 10:52:15;;;;;;;16.23;14.15;;;;;;;;;;5049130;28;20041;-63
2022/05/19 10:54:56;;;;;;;17.25;14.77;;;21.90;99.90;;;;;;5052669;28;20078;-63
2022/05/19 10:57:25;;;;;;;16.25;13.60;;;;;;;;;;5067692;28;20098;-63
2022/05/19 11:00:05;;;;;;;17.10;14.63;;;22.40;99.90;;;;;;5050140;28;20050;-62
2022/05/19 11:03:10;;;;;;;21.25;15.07;;;22.60;99.90;;;;;;5019855;28;20124;-63
2022/05/19 11:05:49;;;;;;;17.25;15.15;;;22.80;99.90;;;;;;5048032;28;20262;-63
2022/05/19 11:08:22;;;;;;;15.15;13.13;;;22.90;99.90;;;;;;5065480;28;20158;-63
2022/05/19 11:10:51;;;;;;;18.90;15.68;;;;;;;;;;5057061;28;21117;-63
2022/05/19 11:13:36;;;;;;;17.38;14.50;;;;;;;;;;5054527;28;20052;-63
2022/05/19 11:16:21;;;;;;;14.32;11.65;;;;;;;;;;5049853;28;20167;-63
2022/05/19 11:18:52;;;;;;;15.73;11.75;;;23.50;99.90;;;;;;5070766;28;20447;-63
2022/05/19 11:21:25;;;;;;;12.35;11.15;;;;;;;;;;5070048;28;20064;-63
2022/05/19 11:23:50;;;;;;;14.45;12.02;;;;;;;;;;5069252;28;20067;-63
2022/05/19 11:26:29;;;;;;;13.43;11.02;;;;;;;;;;5051311;28;20131;-63
2022/05/19 11:29:07;;;;;;;15.40;12.02;;;;;;;;;;5038749;28;20059;-63
2022/05/19 11:31:36;;;;;;;14.68;12.15;;;;;;;;;;5070658;28;20410;-63
2022/05/19 11:34:07;;;;;;;13.05;11.73;;;;;;;;;;5051369;28;20044;-62
2022/05/19 11:36:43;;;;;;;15.27;12.93;;;;;;;;;;5070459;28;20043;-62
2022/05/19 11:39:19;;;;;;;15.05;11.02;;;;;;;;;;5069219;28;21104;-63
2022/05/19 11:41:47;;;;;;;14.35;10.05;;;;;;;;;;5051636;28;20048;-63
2022/05/19 11:44:39;;;;;;;12.25;9.07;;;23.00;99.90;;;;;;5069229;28;20060;-62
2022/05/19 11:55:56;;;;;;;12.77;9.90;;;;;;;;;;5059336;28;20397;-62
2022/05/19 11:58:26;;;;;;;11.65;8.80;;;;;;;;;;5044650;28;20044;-62
2022/05/19 12:01:11;;;;;;;10.60;9.50;;;22.00;99.90;;;;;;5047373;28;20470;-63
2022/05/19 12:03:43;;;;;;;12.57;10.38;;;21.80;99.90;;;;;;5052470;28;20044;-62
2022/05/19 12:06:12;;;;;;;14.65;12.02;;;;;;;;;;5034227;28;20080;-62
2022/05/19 12:08:53;;;;;;;14.07;12.65;;;21.70;99.90;;;;;;5064963;28;20512;-62
2022/05/19 12:11:21;;;;;;;15.10;13.55;;;;;;;;;;5043383;28;20032;-62
2022/05/19 12:14:08;;;;;;;17.02;15.23;;;;;;;;;;5069040;28;20043;-62
2022/05/19 12:17:00;;;;;;;17.45;15.75;;;20.70;99.90;;;;;;5048906;28;20515;-62
2022/05/19 12:19:36;;;;;;;18.27;16.40;;;20.50;99.90;;;;;;5056627;28;20052;-62
2022/05/19 12:22:25;;;;;;;19.80;17.73;;;;;;;;;;5060437;28;20047;-63
2022/05/19 12:24:53;;;;;;;23.35;18.20;;;;;;;;;;5040462;28;20136;-62
2022/05/19 12:27:21;;;;;;;23.98;18.63;;;;;;;;;;5050877;28;20070;-63
2022/05/19 12:33:02;;;;;;;30.92;20.02;;;;;;;;;;5031344;28;20037;-63
2022/05/19 12:35:29;;;;;;;31.73;22.85;;;;;;;;;;5037664;28;20033;-63
2022/05/19 12:38:01;;;;;;;30.13;21.63;;;;;;;;;;5041048;28;20040;-63
2022/05/19 12:40:29;;;;;;;24.27;19.50;;;;;;;;;;5052140;28;20041;-62
2022/05/19 12:43:09;;;;;;;19.25;14.80;;;;;;;;;;5064552;28;20489;-62
2022/05/19 12:45:41;;;;;;;17.92;14.75;;;;;;;;;;5045732;28;20072;-63
2022/05/19 12:48:07;;;;;;;17.90;15.68;;;;;;;;;;5051111;28;20409;-62
2022/05/19 12:50:42;;;;;;;20.80;17.02;;;;;;;;;;5050700;28;20047;-62
2022/05/19 12:53:13;;;;;;;22.13;17.52;;;;;;;;;;5067791;28;20087;-62
2022/05/19 12:55:39;;;;;;;19.25;15.40;;;;;;;;;;5051018;28;20039;-62
2022/05/19 12:58:24;;;;;;;18.48;15.07;;;;;;;;;;5068605;28;20482;-62
2022/05/19 13:00:52;;;;;;;17.77;11.23;;;18.60;99.90;;;;;;5051255;28;20051;-62
2022/05/19 13:03:20;;;;;;;14.07;10.60;;;;;;;;;;5047084;28;20052;-62
2022/05/19 13:05:53;;;;;;;11.90;9.75;;;18.80;99.90;;;;;;5048879;28;20449;-62
2022/05/19 13:08:36;;;;;;;10.73;9.18;;;18.70;99.90;;;;;;5047678;28;20083;-62
2022/05/19 13:11:14;;;;;;;11.23;7.53;;;18.40;99.90;;;;;;5028304;28;20471;-62
2022/05/19 13:13:54;;;;;;;10.95;8.00;;;18.70;99.90;;;;;;5042726;28;20098;-63
2022/05/19 13:16:36;;;;;;;12.48;8.60;;;18.70;99.90;;;;;;5065606;28;20047;-63
2022/05/19 13:19:27;;;;;;;10.23;7.88;;;19.30;99.90;;;;;;5033867;28;20041;-63
2022/05/19 13:22:02;;;;;;;13.02;8.88;;;;;;;;;;5046878;28;20401;-63
2022/05/19 13:24:29;;;;;;;11.32;8.63;;;;;;;;;;5038572;28;20485;-62
2022/05/19 13:32:31;;;;;;;10.50;8.43;;;;;;;;;;5053549;28;20080;-63
2022/05/19 13:34:59;;;;;;;10.25;8.23;;;;;;;;;;5060560;28;20041;-62
2022/05/19 13:37:51;;;;;;;13.70;8.70;;;;;;;;;;5052290;28;20084;-63
2022/05/19 13:40:38;;;;;;;12.00;9.38;;;;;;;;;;5067266;28;20048;-63
2022/05/19 13:43:21;;;;;;;12.88;9.48;;;;;;;;;;5061196;28;20516;-62
2022/05/19 13:45:48;;;;;;;14.75;9.77;;;;;;;;;;5072684;28;20059;-63
2022/05/19 13:48:33;;;;;;;11.82;8.82;;;18.20;99.90;;;;;;5071788;28;20067;-63
2022/05/19 13:51:04;;;;;;;11.25;9.20;;;18.20;99.90;;;;;;5072357;28;20044;-63
2022/05/19 13:53:33;;;;;;;11.50;9.35;;;18.30;99.90;;;;;;5054274;28;20513;-63
2022/05/19 13:55:59;;;;;;;13.15;9.77;;;;;;;;;;5071635;28;20048;-62
2022/05/19 13:58:27;;;;;;;11.48;9.02;;;18.20;99.90;;;;;;5054038;28;20087;-63
2022/05/19 14:00:54;;;;;;;11.05;8.43;;;18.20;99.90;;;;;;5052939;28;20044;-62
2022/05/19 14:03:20;;;;;;;12.27;9.48;;;18.10;99.90;;;;;;5071442;28;20044;-62
2022/05/19 14:05:46;;;;;;;12.10;9.52;;;;;;;;;;5054615;28;20045;-62
2022/05/19 14:08:15;;;;;;;12.65;10.43;;;18.20;99.90;;;;;;5053164;28;20144;-63
2022/05/19 14:10:50;;;;;;;14.70;10.75;;;18.20;99.90;;;;;;5071095;28;20044;-62
2022/05/19 14:13:18;;;;;;;10.25;9.13;;;18.10;99.90;;;;;;5053833;28;20037;-62
2022/05/19 14:16:01;;;;;;;10.98;9.02;;;17.90;99.90;;;;;;5070055;28;20427;-63
2022/05/19 14:18:33;;;;;;;9.20;7.97;;;17.70;99.90;;;;;;5036830;28;20044;-62